createdAt,value
2022-12-09T00:00:19.350Z,18.90
2022-12-09T00:10:20.836Z,19.73
2022-12-09T00:20:22.281Z,18.90
2022-12-09T00:30:23.536Z,19.13
2022-12-09T00:40:24.974Z,18.95
2022-12-09T00:50:26.351Z,18.30
2022-12-09T01:00:27.710Z,17.52
2022-12-09T01:10:28.961Z,17.35
2022-12-09T01:20:30.515Z,17.10
2022-12-09T01:30:32.086Z,16.40
2022-12-09T01:40:33.363Z,16.73
2022-12-09T01:50:34.959Z,17.58
2022-12-09T02:00:36.495Z,16.90
2022-12-09T02:10:37.851Z,17.38
2022-12-09T02:20:39.111Z,17.92
2022-12-09T02:30:40.455Z,17.35
2022-12-09T02:40:41.750Z,16.88
2022-12-09T02:50:43.838Z,16.73
2022-12-09T03:00:45.196Z,18.15
2022-12-09T03:10:46.732Z,15.45
2022-12-09T03:20:48.533Z,19.42
2022-12-09T03:30:49.943Z,17.13
2022-12-09T03:40:51.270Z,17.02
2022-12-09T03:50:52.723Z,16.95
2022-12-09T04:00:54.263Z,17.88
2022-12-09T04:10:55.783Z,18.27
2022-12-09T04:20:57.153Z,18.50
2022-12-09T04:30:58.795Z,17.42
2022-12-09T04:41:00.219Z,19.17
2022-12-09T04:51:01.582Z,20.20
2022-12-09T05:01:03.304Z,20.02
2022-12-09T05:11:04.911Z,19.92
2022-12-09T05:21:06.476Z,20.88
2022-12-09T05:31:08.025Z,18.67
2022-12-09T05:41:09.403Z,19.85
2022-12-09T05:51:11.083Z,17.92
2022-12-09T06:01:12.559Z,21.60
2022-12-09T06:11:14.476Z,20.50
2022-12-09T06:21:15.861Z,22.70
2022-12-09T06:31:17.375Z,23.38
2022-12-09T06:41:19.334Z,20.52
2022-12-09T06:51:20.945Z,24.23
2022-12-09T07:01:22.747Z,24.67
2022-12-09T07:11:24.800Z,27.17
2022-12-09T07:21:26.458Z,25.75
2022-12-09T07:31:28.572Z,24.48
2022-12-09T07:41:30.361Z,27.80
2022-12-09T07:51:32.026Z,24.30
2022-12-09T08:01:33.773Z,26.23
2022-12-09T08:11:35.208Z,26.75
2022-12-09T08:21:36.836Z,30.85
2022-12-09T08:31:41.605Z,27.70
2022-12-09T08:41:43.859Z,29.67
2022-12-09T08:51:45.531Z,32.88
2022-12-09T09:01:46.966Z,27.20
2022-12-09T09:11:48.875Z,26.85
2022-12-09T09:21:50.794Z,25.08
2022-12-09T09:31:54.637Z,24.30
2022-12-09T09:41:56.573Z,20.75
2022-12-09T09:51:58.449Z,20.08
2022-12-09T10:02:00.374Z,21.33
2022-12-09T10:12:02.151Z,27.88
2022-12-09T10:22:03.640Z,26.10
2022-12-09T10:32:05.861Z,27.73
2022-12-09T10:42:31.597Z,22.90
2022-12-09T10:52:36.313Z,22.88
2022-12-09T11:02:37.834Z,21.38
2022-12-09T11:12:41.747Z,22.45
2022-12-09T11:22:44.176Z,18.38
2022-12-09T11:32:45.555Z,17.35
2022-12-09T11:42:46.907Z,16.58
2022-12-09T11:52:48.183Z,16.30
2022-12-09T12:02:49.665Z,17.02
2022-12-09T12:12:50.982Z,16.00
2022-12-09T12:22:54.885Z,16.30
2022-12-09T12:43:36.510Z,17.08
2022-12-09T12:53:37.925Z,17.30
2022-12-09T13:03:39.155Z,18.33
2022-12-09T13:13:40.419Z,17.70
2022-12-09T13:23:41.666Z,18.92
2022-12-09T13:33:43.001Z,18.85
2022-12-09T13:43:44.351Z,18.92
2022-12-09T13:53:46.707Z,18.50
2022-12-09T14:03:48.251Z,19.27
2022-12-09T14:13:49.489Z,15.38
2022-12-09T14:23:50.732Z,13.30
2022-12-09T14:33:51.985Z,13.88
2022-12-09T14:43:53.283Z,15.32
2022-12-09T14:53:54.619Z,13.93
2022-12-09T15:03:56.046Z,14.25
2022-12-09T15:14:17.345Z,14.93
2022-12-09T15:24:18.624Z,14.48
2022-12-09T15:34:26.142Z,18.50
2022-12-09T15:44:27.757Z,19.85
2022-12-09T15:54:29.062Z,18.08
2022-12-09T16:04:30.453Z,18.42
2022-12-09T16:14:31.796Z,18.20
2022-12-09T16:24:57.843Z,18.92
2022-12-09T16:34:54.254Z,19.50
2022-12-09T16:44:55.515Z,19.48
2022-12-09T16:54:56.778Z,18.63
2022-12-09T17:04:58.056Z,19.60
2022-12-09T17:14:59.379Z,19.30
2022-12-09T17:25:00.637Z,19.15
2022-12-09T17:35:01.903Z,21.65
2022-12-09T17:45:03.346Z,24.10
2022-12-09T17:55:06.585Z,19.45
2022-12-09T18:05:09.120Z,25.10
2022-12-09T18:15:10.410Z,21.52
2022-12-09T18:25:11.674Z,21.40
2022-12-09T18:35:12.926Z,20.17
2022-12-09T18:45:14.225Z,19.73
2022-12-09T18:55:15.486Z,19.67
2022-12-09T19:05:16.749Z,19.92
2022-12-09T19:15:18.001Z,20.55
2022-12-09T19:25:19.297Z,20.58
2022-12-09T19:35:20.548Z,19.98
2022-12-09T19:45:21.813Z,18.70
2022-12-09T19:55:23.131Z,17.33
2022-12-09T20:05:24.381Z,18.35
2022-12-09T20:15:25.616Z,19.65
2022-12-09T20:25:26.911Z,17.92
2022-12-09T20:35:28.221Z,16.50
2022-12-09T20:45:29.501Z,17.17
2022-12-09T20:55:30.803Z,18.23
2022-12-09T21:05:32.115Z,17.30
2022-12-09T21:15:33.419Z,17.88
2022-12-09T21:25:34.679Z,17.92
2022-12-09T21:35:36.536Z,19.90
2022-12-09T21:45:37.863Z,18.52
2022-12-09T21:55:39.523Z,17.77
2022-12-09T22:05:40.781Z,18.40
2022-12-09T22:15:42.031Z,17.60
2022-12-09T22:25:52.380Z,18.55
2022-12-09T22:35:53.624Z,23.00
2022-12-09T22:45:54.914Z,18.90
2022-12-09T22:55:56.207Z,16.40
2022-12-09T23:05:57.452Z,16.80
2022-12-09T23:15:58.803Z,17.13
2022-12-09T23:26:00.122Z,16.92
2022-12-09T23:36:01.368Z,17.23
2022-12-09T23:46:02.711Z,18.40
2022-12-09T23:56:04.056Z,17.73
